sensor_id;sensor_type;location;lat;lon;timestamp;pressure;altitude;pressure_sealevel;temperature;humidity
62031;BME280;62035;52.094;5.112;2022-11-20T00:01:14;101505.03;;;-0.26;100.00
62031;BME280;62035;52.094;5.112;2022-11-20T00:03:45;101498.59;;;-0.39;100.00
62031;BME280;62035;52.094;5.112;2022-11-20T00:06:14;101497.41;;;-0.32;100.00
62031;BME280;62035;52.094;5.112;2022-11-20T00:08:44;101504.47;;;-0.34;100.00
62031;BME280;62035;52.094;5.112;2022-11-20T00:11:14;101494.84;;;-0.12;100.00
62031;BME280;62035;52.094;5.112;2022-11-20T00:13:43;101493.38;;;-0.19;100.00
62031;BME280;62035;52.094;5.112;2022-11-20T00:16:12;101494.56;;;-0.26;100.00
62031;BME280;62035;52.094;5.112;2022-11-20T00:18:41;101494.31;;;-0.20;100.00
62031;BME280;62035;52.094;5.112;2022-11-20T00:21:12;101492.19;;;-0.32;100.00
62031;BME280;62035;52.094;5.112;2022-11-20T00:23:42;101490.69;;;-0.38;100.00
62031;BME280;62035;52.094;5.112;2022-11-20T00:26:11;101490.00;;;-0.41;100.00
62031;BME280;62035;52.094;5.112;2022-11-20T00:28:41;101475.78;;;-0.36;100.00
62031;BME280;62035;52.094;5.112;2022-11-20T00:31:11;101471.34;;;-0.34;100.00
62031;BME280;62035;52.094;5.112;2022-11-20T00:33:40;101463.38;;;-0.30;100.00
62031;BME280;62035;52.094;5.112;2022-11-20T00:36:12;101474.66;;;-0.50;100.00
62031;BME280;62035;52.094;5.112;2022-11-20T00:38:40;101475.41;;;-0.26;100.00
62031;BME280;62035;52.094;5.112;2022-11-20T00:41:10;101464.69;;;-0.41;100.00
62031;BME280;62035;52.094;5.112;2022-11-20T00:43:39;101458.50;;;-0.60;100.00
62031;BME280;62035;52.094;5.112;2022-11-20T00:46:10;101453.75;;;-0.50;100.00
62031;BME280;62035;52.094;5.112;2022-11-20T00:48:40;101463.63;;;-0.37;100.00
62031;BME280;62035;52.094;5.112;2022-11-20T00:51:14;101455.09;;;-0.40;100.00
62031;BME280;62035;52.094;5.112;2022-11-20T00:53:44;101449.97;;;-0.43;100.00
62031;BME280;62035;52.094;5.112;2022-11-20T00:56:14;101457.28;;;-0.51;100.00
62031;BME280;62035;52.094;5.112;2022-11-20T00:58:44;101460.16;;;-0.57;100.00
62031;BME280;62035;52.094;5.112;2022-11-20T01:01:14;101459.25;;;-0.36;100.00
62031;BME280;62035;52.094;5.112;2022-11-20T01:03:45;101467.38;;;-0.42;100.00
62031;BME280;62035;52.094;5.112;2022-11-20T01:06:17;101464.16;;;-0.49;100.00
62031;BME280;62035;52.094;5.112;2022-11-20T01:08:46;101468.22;;;-0.42;100.00
62031;BME280;62035;52.094;5.112;2022-11-20T01:11:18;101467.22;;;-0.39;100.00
62031;BME280;62035;52.094;5.112;2022-11-20T01:13:48;101469.56;;;-0.33;100.00
62031;BME280;62035;52.094;5.112;2022-11-20T01:16:19;101466.22;;;-0.37;100.00
62031;BME280;62035;52.094;5.112;2022-11-20T01:18:49;101456.56;;;-0.55;100.00
62031;BME280;62035;52.094;5.112;2022-11-20T01:21:20;101457.53;;;-0.37;100.00
62031;BME280;62035;52.094;5.112;2022-11-20T01:23:53;101442.31;;;-0.48;100.00
62031;BME280;62035;52.094;5.112;2022-11-20T01:26:22;101460.81;;;-0.12;100.00
62031;BME280;62035;52.094;5.112;2022-11-20T01:28:51;101462.75;;;0.04;100.00
62031;BME280;62035;52.094;5.112;2022-11-20T01:31:21;101458.34;;;-0.15;100.00
62031;BME280;62035;52.094;5.112;2022-11-20T01:33:52;101455.53;;;-0.30;100.00
62031;BME280;62035;52.094;5.112;2022-11-20T01:36:24;101460.94;;;-0.55;100.00
62031;BME280;62035;52.094;5.112;2022-11-20T01:38:53;101458.75;;;-0.66;100.00
62031;BME280;62035;52.094;5.112;2022-11-20T01:41:23;101460.41;;;-0.63;100.00
62031;BME280;62035;52.094;5.112;2022-11-20T01:44:14;101453.81;;;-0.31;100.00
62031;BME280;62035;52.094;5.112;2022-11-20T01:46:52;101460.88;;;-0.54;100.00
62031;BME280;62035;52.094;5.112;2022-11-20T01:49:28;101458.03;;;-0.70;100.00
62031;BME280;62035;52.094;5.112;2022-11-20T01:52:05;101457.31;;;-0.73;100.00
62031;BME280;62035;52.094;5.112;2022-11-20T01:54:42;101456.44;;;-0.74;100.00
62031;BME280;62035;52.094;5.112;2022-11-20T01:57:15;101451.94;;;-0.70;100.00
62031;BME280;62035;52.094;5.112;2022-11-20T01:59:51;101449.09;;;-0.64;100.00
62031;BME280;62035;52.094;5.112;2022-11-20T02:02:26;101448.91;;;-0.59;100.00
62031;BME280;62035;52.094;5.112;2022-11-20T02:04:58;101444.78;;;-0.65;100.00
62031;BME280;62035;52.094;5.112;2022-11-20T02:07:38;101432.44;;;-0.61;100.00
62031;BME280;62035;52.094;5.112;2022-11-20T02:10:06;101437.00;;;-0.67;100.00
62031;BME280;62035;52.094;5.112;2022-11-20T02:12:34;101428.25;;;-0.65;100.00
62031;BME280;62035;52.094;5.112;2022-11-20T02:15:20;101428.84;;;-0.59;100.00
62031;BME280;62035;52.094;5.112;2022-11-20T02:17:48;101428.59;;;-0.53;100.00
62031;BME280;62035;52.094;5.112;2022-11-20T02:20:15;101428.41;;;-0.48;100.00
62031;BME280;62035;52.094;5.112;2022-11-20T02:22:50;101423.88;;;-0.65;100.00
62031;BME280;62035;52.094;5.112;2022-11-20T02:25:26;101426.69;;;-0.49;100.00
62031;BME280;62035;52.094;5.112;2022-11-20T02:27:57;101427.75;;;-0.53;100.00
62031;BME280;62035;52.094;5.112;2022-11-20T02:30:24;101428.38;;;-0.28;100.00
62031;BME280;62035;52.094;5.112;2022-11-20T02:32:52;101440.16;;;-0.18;100.00
62031;BME280;62035;52.094;5.112;2022-11-20T02:35:41;101428.00;;;-0.39;100.00
62031;BME280;62035;52.094;5.112;2022-11-20T02:38:12;101436.88;;;-0.23;100.00
62031;BME280;62035;52.094;5.112;2022-11-20T02:40:42;101437.59;;;-0.19;100.00
62031;BME280;62035;52.094;5.112;2022-11-20T02:43:10;101443.06;;;-0.66;100.00
62031;BME280;62035;52.094;5.112;2022-11-20T02:45:38;101433.44;;;-0.86;100.00
62031;BME280;62035;52.094;5.112;2022-11-20T02:48:06;101429.63;;;-0.99;100.00
62031;BME280;62035;52.094;5.112;2022-11-20T02:50:36;101423.19;;;-1.12;100.00
62031;BME280;62035;52.094;5.112;2022-11-20T02:53:06;101423.00;;;-0.86;100.00
62031;BME280;62035;52.094;5.112;2022-11-20T02:55:33;101425.50;;;-0.83;100.00
62031;BME280;62035;52.094;5.112;2022-11-20T02:58:03;101413.03;;;-0.56;100.00
62031;BME280;62035;52.094;5.112;2022-11-20T03:00:31;101422.50;;;-0.53;100.00
62031;BME280;62035;52.094;5.112;2022-11-20T03:02:59;101421.59;;;-0.52;100.00
62031;BME280;62035;52.094;5.112;2022-11-20T03:05:27;101415.59;;;-0.54;100.00
62031;BME280;62035;52.094;5.112;2022-11-20T03:07:54;101418.38;;;-0.59;100.00
62031;BME280;62035;52.094;5.112;2022-11-20T03:10:22;101406.72;;;-0.72;100.00
62031;BME280;62035;52.094;5.112;2022-11-20T03:12:52;101427.88;;;-0.78;100.00
62031;BME280;62035;52.094;5.112;2022-11-20T03:15:22;101411.66;;;-0.64;100.00
62031;BME280;62035;52.094;5.112;2022-11-20T03:17:53;101414.66;;;-0.33;100.00
62031;BME280;62035;52.094;5.112;2022-11-20T03:20:21;101410.34;;;-0.34;100.00
62031;BME280;62035;52.094;5.112;2022-11-20T03:22:49;101397.84;;;-0.27;100.00
62031;BME280;62035;52.094;5.112;2022-11-20T03:25:17;101405.41;;;-0.40;100.00
62031;BME280;62035;52.094;5.112;2022-11-20T03:27:44;101399.81;;;-0.32;100.00
62031;BME280;62035;52.094;5.112;2022-11-20T03:30:13;101386.81;;;-0.34;100.00
62031;BME280;62035;52.094;5.112;2022-11-20T03:32:42;101390.47;;;-0.38;100.00
62031;BME280;62035;52.094;5.112;2022-11-20T03:35:10;101390.47;;;-0.38;100.00
62031;BME280;62035;52.094;5.112;2022-11-20T03:37:37;101374.16;;;-0.63;100.00
62031;BME280;62035;52.094;5.112;2022-11-20T03:40:06;101376.63;;;-0.81;100.00
62031;BME280;62035;52.094;5.112;2022-11-20T03:42:34;101372.56;;;-0.88;100.00
62031;BME280;62035;52.094;5.112;2022-11-20T03:45:15;101371.91;;;-0.73;100.00
62031;BME280;62035;52.094;5.112;2022-11-20T03:47:45;101373.09;;;-0.59;100.00
62031;BME280;62035;52.094;5.112;2022-11-20T03:50:13;101377.25;;;-0.76;100.00
62031;BME280;62035;52.094;5.112;2022-11-20T03:52:41;101371.47;;;-0.62;100.00
62031;BME280;62035;52.094;5.112;2022-11-20T03:55:09;101370.88;;;-0.48;100.00
62031;BME280;62035;52.094;5.112;2022-11-20T03:57:37;101370.75;;;-0.65;100.00
62031;BME280;62035;52.094;5.112;2022-11-20T04:00:05;101368.25;;;-0.89;100.00
62031;BME280;62035;52.094;5.112;2022-11-20T04:02:33;101372.06;;;-0.55;100.00
62031;BME280;62035;52.094;5.112;2022-11-20T04:05:03;101362.00;;;-0.64;100.00
62031;BME280;62035;52.094;5.112;2022-11-20T04:07:33;101360.22;;;-0.64;100.00
62031;BME280;62035;52.094;5.112;2022-11-20T04:10:02;101352.38;;;-0.64;100.00
62031;BME280;62035;52.094;5.112;2022-11-20T04:12:32;101351.78;;;-0.71;100.00
62031;BME280;62035;52.094;5.112;2022-11-20T04:15:00;101349.97;;;-0.69;100.00
62031;BME280;62035;52.094;5.112;2022-11-20T04:17:28;101353.50;;;-0.70;100.00
62031;BME280;62035;52.094;5.112;2022-11-20T04:19:55;101349.19;;;-0.71;100.00
62031;BME280;62035;52.094;5.112;2022-11-20T04:22:24;101343.84;;;-0.88;100.00
62031;BME280;62035;52.094;5.112;2022-11-20T04:24:52;101337.09;;;-0.73;100.00
62031;BME280;62035;52.094;5.112;2022-11-20T04:27:19;101338.13;;;-0.77;100.00
62031;BME280;62035;52.094;5.112;2022-11-20T04:29:47;101334.53;;;-0.75;100.00
62031;BME280;62035;52.094;5.112;2022-11-20T04:32:14;101342.53;;;-0.57;100.00
62031;BME280;62035;52.094;5.112;2022-11-20T04:34:42;101340.34;;;-0.68;100.00
62031;BME280;62035;52.094;5.112;2022-11-20T04:37:09;101338.22;;;-0.58;100.00
62031;BME280;62035;52.094;5.112;2022-11-20T04:39:38;101334.56;;;-0.54;100.00
62031;BME280;62035;52.094;5.112;2022-11-20T04:42:08;101335.91;;;-0.66;100.00
62031;BME280;62035;52.094;5.112;2022-11-20T04:44:53;101339.19;;;-0.61;100.00
62031;BME280;62035;52.094;5.112;2022-11-20T04:47:21;101347.28;;;-0.67;100.00
62031;BME280;62035;52.094;5.112;2022-11-20T04:49:49;101336.69;;;-0.64;100.00
62031;BME280;62035;52.094;5.112;2022-11-20T04:52:16;101330.50;;;-0.61;100.00
62031;BME280;62035;52.094;5.112;2022-11-20T04:54:45;101325.28;;;-0.61;100.00
62031;BME280;62035;52.094;5.112;2022-11-20T04:57:14;101322.47;;;-0.57;100.00
62031;BME280;62035;52.094;5.112;2022-11-20T04:59:42;101313.13;;;-0.62;100.00
62031;BME280;62035;52.094;5.112;2022-11-20T05:02:09;101305.84;;;-0.56;100.00
62031;BME280;62035;52.094;5.112;2022-11-20T05:04:37;101307.09;;;-0.44;100.00
62031;BME280;62035;52.094;5.112;2022-11-20T05:07:05;101306.06;;;-0.60;100.00
62031;BME280;62035;52.094;5.112;2022-11-20T05:09:32;101311.75;;;-0.91;100.00
62031;BME280;62035;52.094;5.112;2022-11-20T05:12:01;101314.25;;;-0.88;100.00
62031;BME280;62035;52.094;5.112;2022-11-20T05:14:29;101318.09;;;-0.56;100.00
62031;BME280;62035;52.094;5.112;2022-11-20T05:16:57;101305.66;;;-0.51;100.00
62031;BME280;62035;52.094;5.112;2022-11-20T05:19:25;101293.44;;;-0.71;100.00
62031;BME280;62035;52.094;5.112;2022-11-20T05:21:52;101296.75;;;-0.86;100.00
62031;BME280;62035;52.094;5.112;2022-11-20T05:24:20;101298.94;;;-0.77;100.00
62031;BME280;62035;52.094;5.112;2022-11-20T05:26:48;101294.97;;;-0.86;100.00
62031;BME280;62035;52.094;5.112;2022-11-20T05:29:16;101294.97;;;-0.86;100.00
62031;BME280;62035;52.094;5.112;2022-11-20T05:31:44;101302.53;;;-0.80;100.00
62031;BME280;62035;52.094;5.112;2022-11-20T05:34:11;101299.13;;;-0.61;100.00
62031;BME280;62035;52.094;5.112;2022-11-20T05:36:39;101298.34;;;-0.63;100.00
62031;BME280;62035;52.094;5.112;2022-11-20T05:39:07;101305.94;;;-0.57;100.00
62031;BME280;62035;52.094;5.112;2022-11-20T05:41:34;101311.16;;;-0.78;100.00
62031;BME280;62035;52.094;5.112;2022-11-20T05:44:02;101312.84;;;-0.77;100.00
62031;BME280;62035;52.094;5.112;2022-11-20T05:46:31;101324.38;;;-0.81;100.00
62031;BME280;62035;52.094;5.112;2022-11-20T05:48:58;101326.91;;;-0.79;100.00
62031;BME280;62035;52.094;5.112;2022-11-20T05:51:26;101323.59;;;-0.83;100.00
62031;BME280;62035;52.094;5.112;2022-11-20T05:53:56;101319.34;;;-0.85;100.00
62031;BME280;62035;52.094;5.112;2022-11-20T05:56:24;101320.13;;;-0.83;100.00
62031;BME280;62035;52.094;5.112;2022-11-20T05:58:51;101323.97;;;-0.72;100.00
62031;BME280;62035;52.094;5.112;2022-11-20T06:01:21;101315.34;;;-0.94;100.00
62031;BME280;62035;52.094;5.112;2022-11-20T06:03:52;101336.31;;;-0.75;100.00
62031;BME280;62035;52.094;5.112;2022-11-20T06:06:20;101313.63;;;-0.75;100.00
62031;BME280;62035;52.094;5.112;2022-11-20T06:08:48;101332.66;;;-0.51;100.00
62031;BME280;62035;52.094;5.112;2022-11-20T06:11:17;101326.56;;;-0.51;100.00
62031;BME280;62035;52.094;5.112;2022-11-20T06:13:45;101326.84;;;-0.39;100.00
62031;BME280;62035;52.094;5.112;2022-11-20T06:16:16;101322.19;;;-0.51;100.00
62031;BME280;62035;52.094;5.112;2022-11-20T06:18:45;101325.06;;;-0.57;100.00
62031;BME280;62035;52.094;5.112;2022-11-20T06:21:16;101330.75;;;-0.47;100.00
62031;BME280;62035;52.094;5.112;2022-11-20T06:23:45;101316.50;;;-0.60;100.00
62031;BME280;62035;52.094;5.112;2022-11-20T06:26:15;101320.56;;;-0.53;100.00
62031;BME280;62035;52.094;5.112;2022-11-20T06:28:44;101321.34;;;-0.51;100.00
62031;BME280;62035;52.094;5.112;2022-11-20T06:31:13;101322.84;;;-0.46;100.00
62031;BME280;62035;52.094;5.112;2022-11-20T06:33:42;101317.56;;;-0.44;100.00
62031;BME280;62035;52.094;5.112;2022-11-20T06:36:12;101326.00;;;-0.39;100.00
62031;BME280;62035;52.094;5.112;2022-11-20T06:38:42;101309.41;;;-0.38;100.00
62031;BME280;62035;52.094;5.112;2022-11-20T06:41:12;101316.19;;;-0.34;100.00
62031;BME280;62035;52.094;5.112;2022-11-20T06:43:41;101308.47;;;-0.56;100.00
62031;BME280;62035;52.094;5.112;2022-11-20T06:46:09;101306.06;;;-0.60;100.00
62031;BME280;62035;52.094;5.112;2022-11-20T06:48:38;101311.75;;;-0.71;100.00
62031;BME280;62035;52.094;5.112;2022-11-20T06:51:07;101312.78;;;-0.55;100.00
62031;BME280;62035;52.094;5.112;2022-11-20T06:53:36;101304.47;;;-0.44;100.00
62031;BME280;62035;52.094;5.112;2022-11-20T06:56:06;101312.09;;;-0.40;100.00
62031;BME280;62035;52.094;5.112;2022-11-20T06:58:35;101303.91;;;-0.51;100.00
62031;BME280;62035;52.094;5.112;2022-11-20T07:01:05;101303.81;;;-0.49;100.00
62031;BME280;62035;52.094;5.112;2022-11-20T07:03:35;101307.66;;;-0.38;100.00
62031;BME280;62035;52.094;5.112;2022-11-20T07:06:04;101304.75;;;-0.31;100.00
62031;BME280;62035;52.094;5.112;2022-11-20T07:08:32;101300.31;;;-0.48;100.00
62031;BME280;62035;52.094;5.112;2022-11-20T07:11:03;101298.69;;;-0.32;100.00
62031;BME280;62035;52.094;5.112;2022-11-20T07:13:34;101294.75;;;-0.61;100.00
62031;BME280;62035;52.094;5.112;2022-11-20T07:16:03;101293.78;;;-0.40;100.00
62031;BME280;62035;52.094;5.112;2022-11-20T07:18:32;101294.09;;;-0.46;100.00
62031;BME280;62035;52.094;5.112;2022-11-20T07:21:01;101280.94;;;-0.44;100.00
62031;BME280;62035;52.094;5.112;2022-11-20T07:23:29;101292.03;;;-0.39;100.00
62031;BME280;62035;52.094;5.112;2022-11-20T07:25:57;101288.69;;;-0.61;100.00
62031;BME280;62035;52.094;5.112;2022-11-20T07:28:26;101281.22;;;-0.50;100.00
62031;BME280;62035;52.094;5.112;2022-11-20T07:30:53;101285.16;;;-0.60;100.00
62031;BME280;62035;52.094;5.112;2022-11-20T07:33:21;101288.41;;;-0.55;100.00
62031;BME280;62035;52.094;5.112;2022-11-20T07:35:49;101284.03;;;-0.36;100.00
62031;BME280;62035;52.094;5.112;2022-11-20T07:38:16;101289.75;;;-0.08;100.00
62031;BME280;62035;52.094;5.112;2022-11-20T07:40:44;101292.41;;;0.10;100.00
62031;BME280;62035;52.094;5.112;2022-11-20T07:43:11;101277.97;;;0.01;100.00
62031;BME280;62035;52.094;5.112;2022-11-20T07:45:40;101290.50;;;0.13;100.00
62031;BME280;62035;52.094;5.112;2022-11-20T07:48:08;101294.19;;;0.45;100.00
62031;BME280;62035;52.094;5.112;2022-11-20T07:50:35;101300.00;;;0.52;100.00
62031;BME280;62035;52.094;5.112;2022-11-20T07:53:04;101293.06;;;0.51;100.00
62031;BME280;62035;52.094;5.112;2022-11-20T07:55:32;101292.75;;;0.57;100.00
62031;BME280;62035;52.094;5.112;2022-11-20T07:58:00;101278.22;;;0.69;100.00
62031;BME280;62035;52.094;5.112;2022-11-20T08:00:27;101279.69;;;0.74;100.00
62031;BME280;62035;52.094;5.112;2022-11-20T08:02:56;101276.75;;;0.80;100.00
62031;BME280;62035;52.094;5.112;2022-11-20T08:05:24;101276.38;;;0.88;100.00
62031;BME280;62035;52.094;5.112;2022-11-20T08:07:52;101278.78;;;1.10;100.00
62031;BME280;62035;52.094;5.112;2022-11-20T08:10:19;101275.50;;;1.22;100.00
62031;BME280;62035;52.094;5.112;2022-11-20T08:12:48;101276.88;;;1.29;100.00
62031;BME280;62035;52.094;5.112;2022-11-20T08:15:34;101271.69;;;1.12;100.00
62031;BME280;62035;52.094;5.112;2022-11-20T08:18:05;101272.13;;;1.20;100.00
62031;BME280;62035;52.094;5.112;2022-11-20T08:20:35;101277.38;;;1.20;100.00
62031;BME280;62035;52.094;5.112;2022-11-20T08:23:04;101273.38;;;1.13;100.00
62031;BME280;62035;52.094;5.112;2022-11-20T08:25:34;101279.34;;;1.32;100.00
62031;BME280;62035;52.094;5.112;2022-11-20T08:28:04;101279.38;;;1.15;100.00
62031;BME280;62035;52.094;5.112;2022-11-20T08:30:34;101277.47;;;1.01;100.00
62031;BME280;62035;52.094;5.112;2022-11-20T08:33:05;101278.00;;;0.90;100.00
62031;BME280;62035;52.094;5.112;2022-11-20T08:35:35;101275.06;;;0.96;100.00
62031;BME280;62035;52.094;5.112;2022-11-20T08:38:05;101275.81;;;0.81;100.00
62031;BME280;62035;52.094;5.112;2022-11-20T08:40:33;101270.13;;;0.90;100.00
62031;BME280;62035;52.094;5.112;2022-11-20T08:43:00;101282.22;;;0.93;100.00
62031;BME280;62035;52.094;5.112;2022-11-20T08:45:28;101283.38;;;0.87;100.00
62031;BME280;62035;52.094;5.112;2022-11-20T08:48:00;101280.84;;;1.03;100.00
62031;BME280;62035;52.094;5.112;2022-11-20T08:50:29;101266.03;;;1.19;100.00
62031;BME280;62035;52.094;5.112;2022-11-20T08:53:02;101278.25;;;1.36;100.00
62031;BME280;62035;52.094;5.112;2022-11-20T08:55:30;101275.28;;;1.09;100.00
62031;BME280;62035;52.094;5.112;2022-11-20T08:57:57;101275.53;;;1.05;100.00
62031;BME280;62035;52.094;5.112;2022-11-20T09:00:25;101277.34;;;1.37;100.00
62031;BME280;62035;52.094;5.112;2022-11-20T09:02:52;101270.44;;;1.19;100.00
62031;BME280;62035;52.094;5.112;2022-11-20T09:05:20;101265.34;;;1.16;100.00
62031;BME280;62035;52.094;5.112;2022-11-20T09:07:49;101237.22;;;0.85;100.00
62031;BME280;62035;52.094;5.112;2022-11-20T09:10:16;101253.09;;;1.16;100.00
62031;BME280;62035;52.094;5.112;2022-11-20T09:12:48;101250.63;;;1.46;100.00
62031;BME280;62035;52.094;5.112;2022-11-20T09:15:16;101258.66;;;1.43;100.00
62031;BME280;62035;52.094;5.112;2022-11-20T09:17:50;101244.69;;;1.91;100.00
62031;BME280;62035;52.094;5.112;2022-11-20T09:20:18;101239.84;;;1.84;100.00
62031;BME280;62035;52.094;5.112;2022-11-20T09:22:47;101241.22;;;1.91;100.00
62031;BME280;62035;52.094;5.112;2022-11-20T09:25:16;101229.09;;;2.20;100.00
62031;BME280;62035;52.094;5.112;2022-11-20T09:27:44;101222.22;;;2.33;100.00
62031;BME280;62035;52.094;5.112;2022-11-20T09:30:12;101211.13;;;2.28;100.00
62031;BME280;62035;52.094;5.112;2022-11-20T09:32:41;101214.53;;;2.44;100.00
62031;BME280;62035;52.094;5.112;2022-11-20T09:35:09;101217.47;;;2.40;100.00
62031;BME280;62035;52.094;5.112;2022-11-20T09:37:38;101211.38;;;2.08;100.00
62031;BME280;62035;52.094;5.112;2022-11-20T09:40:18;101207.19;;;1.89;100.00
62031;BME280;62035;52.094;5.112;2022-11-20T09:42:51;101201.22;;;2.17;100.00
62031;BME280;62035;52.094;5.112;2022-11-20T09:45:39;101211.28;;;2.25;100.00
62031;BME280;62035;52.094;5.112;2022-11-20T09:48:24;101213.22;;;2.37;100.00
62031;BME280;62035;52.094;5.112;2022-11-20T09:51:10;101204.44;;;2.52;100.00
62031;BME280;62035;52.094;5.112;2022-11-20T09:53:56;101186.47;;;2.60;100.00
62031;BME280;62035;52.094;5.112;2022-11-20T09:56:36;101188.97;;;2.78;100.00
62031;BME280;62035;52.094;5.112;2022-11-20T09:59:18;101189.22;;;2.87;100.00
62031;BME280;62035;52.094;5.112;2022-11-20T10:01:57;101197.38;;;2.83;100.00
62031;BME280;62035;52.094;5.112;2022-11-20T10:04:30;101188.56;;;2.84;100.00
62031;BME280;62035;52.094;5.112;2022-11-20T10:07:01;101185.38;;;2.79;100.00
62031;BME280;62035;52.094;5.112;2022-11-20T10:09:33;101189.41;;;2.84;100.00
62031;BME280;62035;52.094;5.112;2022-11-20T10:12:12;101182.75;;;2.93;100.00
62031;BME280;62035;52.094;5.112;2022-11-20T10:14:54;101178.03;;;2.70;100.00
62031;BME280;62035;52.094;5.112;2022-11-20T10:18:00;101171.50;;;2.91;100.00
62031;BME280;62035;52.094;5.112;2022-11-20T10:20:43;101162.31;;;2.98;100.00
62031;BME280;62035;52.094;5.112;2022-11-20T10:23:39;101154.41;;;3.26;100.00
62031;BME280;62035;52.094;5.112;2022-11-20T10:26:21;101114.84;;;3.42;100.00
62031;BME280;62035;52.094;5.112;2022-11-20T10:29:06;101134.88;;;3.30;100.00
62031;BME280;62035;52.094;5.112;2022-11-20T10:31:40;101126.78;;;3.33;100.00
62031;BME280;62035;52.094;5.112;2022-11-20T10:34:18;101126.59;;;3.37;100.00
62031;BME280;62035;52.094;5.112;2022-11-20T10:36:54;101113.22;;;3.54;100.00
62031;BME280;62035;52.094;5.112;2022-11-20T10:39:32;101112.28;;;3.82;100.00
62031;BME280;62035;52.094;5.112;2022-11-20T10:42:08;101099.66;;;3.60;100.00
62031;BME280;62035;52.094;5.112;2022-11-20T10:44:43;101099.97;;;3.82;100.00
62031;BME280;62035;52.094;5.112;2022-11-20T10:47:30;101083.84;;;4.14;100.00
62031;BME280;62035;52.094;5.112;2022-11-20T10:50:04;101094.63;;;3.84;100.00
62031;BME280;62035;52.094;5.112;2022-11-20T10:52:43;101079.81;;;3.95;100.00
62031;BME280;62035;52.094;5.112;2022-11-20T10:55:27;101070.66;;;4.14;100.00
62031;BME280;62035;52.094;5.112;2022-11-20T10:58:13;101064.59;;;4.51;100.00
62031;BME280;62035;52.094;5.112;2022-11-20T11:01:04;101050.28;;;4.68;100.00
62031;BME280;62035;52.094;5.112;2022-11-20T11:03:32;101038.56;;;4.34;100.00
62031;BME280;62035;52.094;5.112;2022-11-20T11:06:08;101041.31;;;4.58;100.00
62031;BME280;62035;52.094;5.112;2022-11-20T11:08:43;101027.38;;;4.18;100.00
62031;BME280;62035;52.094;5.112;2022-11-20T11:11:21;101030.88;;;4.31;100.00
62031;BME280;62035;52.094;5.112;2022-11-20T11:13:51;101033.09;;;4.37;100.00
62031;BME280;62035;52.094;5.112;2022-11-20T11:16:24;101024.53;;;4.46;100.00
62031;BME280;62035;52.094;5.112;2022-11-20T11:19:04;101026.00;;;4.63;100.00
62031;BME280;62035;52.094;5.112;2022-11-20T11:21:32;101017.06;;;4.65;100.00
62031;BME280;62035;52.094;5.112;2022-11-20T11:24:03;101015.47;;;4.50;100.00
62031;BME280;62035;52.094;5.112;2022-11-20T11:26:31;101008.09;;;4.68;100.00
62031;BME280;62035;52.094;5.112;2022-11-20T11:29:00;101002.88;;;4.92;100.00
62031;BME280;62035;52.094;5.112;2022-11-20T11:31:31;100998.94;;;4.48;100.00
62031;BME280;62035;52.094;5.112;2022-11-20T11:34:05;101008.19;;;4.16;100.00
62031;BME280;62035;52.094;5.112;2022-11-20T11:36:34;101016.84;;;4.18;100.00
62031;BME280;62035;52.094;5.112;2022-11-20T11:39:04;100998.31;;;4.32;100.00
62031;BME280;62035;52.094;5.112;2022-11-20T11:41:38;101001.88;;;4.06;100.00
62031;BME280;62035;52.094;5.112;2022-11-20T11:44:15;101000.00;;;4.20;100.00
62031;BME280;62035;52.094;5.112;2022-11-20T11:47:09;100991.97;;;4.22;100.00
62031;BME280;62035;52.094;5.112;2022-11-20T11:49:45;100986.72;;;3.96;100.00
62031;BME280;62035;52.094;5.112;2022-11-20T11:52:15;100983.13;;;3.97;100.00
62031;BME280;62035;52.094;5.112;2022-11-20T11:54:49;100978.59;;;4.12;100.00
62031;BME280;62035;52.094;5.112;2022-11-20T11:57:27;100982.72;;;4.16;100.00
62031;BME280;62035;52.094;5.112;2022-11-20T12:00:10;100974.69;;;4.18;100.00
62031;BME280;62035;52.094;5.112;2022-11-20T12:02:49;100968.38;;;4.20;100.00
62031;BME280;62035;52.094;5.112;2022-11-20T12:05:30;100965.84;;;4.06;100.00
62031;BME280;62035;52.094;5.112;2022-11-20T12:08:12;100960.25;;;4.11;100.00
62031;BME280;62035;52.094;5.112;2022-11-20T12:10:48;100949.63;;;4.38;100.00
62031;BME280;62035;52.094;5.112;2022-11-20T12:13:37;100943.38;;;4.51;100.00
62031;BME280;62035;52.094;5.112;2022-11-20T12:16:13;100945.00;;;4.28;100.00
62031;BME280;62035;52.094;5.112;2022-11-20T12:18:43;100938.22;;;4.50;100.00
62031;BME280;62035;52.094;5.112;2022-11-20T12:21:19;100932.16;;;4.73;100.00
62031;BME280;62035;52.094;5.112;2022-11-20T12:24:06;100918.91;;;4.49;100.00
62031;BME280;62035;52.094;5.112;2022-11-20T12:26:57;100918.13;;;4.23;100.00
62031;BME280;62035;52.094;5.112;2022-11-20T12:29:43;100911.66;;;4.40;100.00
62031;BME280;62035;52.094;5.112;2022-11-20T12:32:43;100906.81;;;4.47;100.00
62031;BME280;62035;52.094;5.112;2022-11-20T12:35:36;100889.41;;;4.44;100.00
62031;BME280;62035;52.094;5.112;2022-11-20T12:38:36;100892.53;;;4.62;100.00
62031;BME280;62035;52.094;5.112;2022-11-20T12:41:17;100883.31;;;4.44;100.00
62031;BME280;62035;52.094;5.112;2022-11-20T12:44:24;100887.75;;;4.80;100.00
62031;BME280;62035;52.094;5.112;2022-11-20T12:47:29;100886.84;;;4.92;100.00
62031;BME280;62035;52.094;5.112;2022-11-20T12:50:13;100880.28;;;4.74;100.00
62031;BME280;62035;52.094;5.112;2022-11-20T12:52:52;100873.97;;;4.63;100.00
62031;BME280;62035;52.094;5.112;2022-11-20T12:55:33;100881.22;;;4.73;100.00
62031;BME280;62035;52.094;5.112;2022-11-20T12:58:13;100864.06;;;4.91;100.00
62031;BME280;62035;52.094;5.112;2022-11-20T13:00:54;100857.44;;;4.85;100.00
62031;BME280;62035;52.094;5.112;2022-11-20T13:03:43;100858.97;;;4.77;100.00
62031;BME280;62035;52.094;5.112;2022-11-20T13:06:19;100846.53;;;4.79;100.00
62031;BME280;62035;52.094;5.112;2022-11-20T13:08:52;100851.09;;;4.64;100.00